Alamosa, CO (81101)

9:12 AM MDT on June 28, 2017 (GMT -0600)
Park Ave. neighborhood | | Change Station
Active Advisory: Fire Weather Warning

Elev 7552 ft 37.49 °N, 105.89 °W | Updated 5 seconds ago

Clear
Clear
77.4 °F
Feels Like 78 °F
N
4.3
Wind Variable Wind from East
Gusts 6.9 mph

Today
High -- | Low -- °F
--% Chance of Precip.
Yesterday
High -- | Low -- °F
Precip. -- in
Pressure 29.85 in
Visibility 10.0 miles
Clouds Clear
Heat Index 78 °F
Dew Point 41 °F
Humidity 27%
Rainfall 0.00 in
Snow Depth Not available.
5:45 AM 8:28 PM
Waxing Crescent, 26% visible
METAR KALS 281452Z AUTO 17006KT 10SM CLR 17/03 A3015 RMK AO2 SLP107 T01720028 51008 TSNO
Pressure 29.85 in
Visibility 10.0 miles
Clouds Clear
Heat Index 78 °F
Dew Point 41 °F
Humidity 27%
Rainfall 0.00 in
Snow Depth Not available.
5:45 AM 8:28 PM
Waxing Crescent, 26% visible
METAR KALS 281452Z AUTO 17006KT 10SM CLR 17/03 A3015 RMK AO2 SLP107 T01720028 51008 TSNO

Get Your Daily Forecast Email!

Thanks for signing up!

Be on the lookout for a verification email in your inbox.

You'll start receiving severe weather alerts in your inbox..

×

10-Day Weather Forecast

Almanac

Astronomy

Jun. 28, 2017 Rise Set
Actual Time
Civil Twilight
Nautical Twilight
Astronomical Twilight
Moon
Length of Visible Light
Length of Day
Tomorrow will be .
, % of the Moon is Illuminated

Today's Extremes

State Highs State Lows

Community

WunderPhotos

Category 6

Welcome to Category 6. This is the collective home for Weather Underground's featured writeups by Dr. Jeff Masters (right), Bob Henson (left), Chris Burt, and other regular contributors.

Nearby

Air Quality

  Air Quality AQ Index Pollutant
Not available.

Snow Depth

Station Depth Elevation

Earthquake Activity

City Distance Mag. Time & Date
Minimum magnitude displayed is 2.5.

Coastal Water Temperatures

Place Temperature

Stations

Nearby Weather Stations

Station Location Temp. Windchill Dew Point Humidity Wind Precip. Elev Updated Type
                   

Watches & Warnings

Fire Weather Warning
Issued: 3:48 AM MDT Jun. 28, 2017 – National Weather Service

... Red flag warning remains in effect from noon today to 8 PM MDT
this evening for fire weather zones 223 and 224...

* affected area... fire weather zones 223 and 224.

* Winds... west 10 to 20 mph with gusts up to 30 mph.

* Relative humidity... as low as 9 percent.

* Temperatures... in the mid 70s mountains and 80 to 85 in the San
Luis valley.

* Impacts... conditions will be favorable for the rapid ignition,
growth and spread of fires.

Precautionary/preparedness actions...

A red flag warning means that critical fire weather conditions
are either occurring now, or will shortly. A combination of
strong winds, low relative humidity, and warm temperatures can
contribute to extreme fire behavior.



Hodanish